createdAt,value
2023-04-10T20:43:57.754Z,9.40
2023-04-10T20:46:30.963Z,9.70
2023-04-10T20:49:10.484Z,9.90
2023-04-10T20:51:53.227Z,12.40
2023-04-10T20:54:27.957Z,11.20
2023-04-10T20:57:08.862Z,12.80
2023-04-10T20:59:42.486Z,11.60
2023-04-10T21:02:17.039Z,11.60
2023-04-10T21:04:51.125Z,11.30
2023-04-10T21:07:23.279Z,12.00
2023-04-10T21:09:57.044Z,12.50
2023-04-10T21:12:29.165Z,13.00
2023-04-10T21:15:01.941Z,12.80
2023-04-10T21:17:41.435Z,12.80
2023-04-10T21:20:17.197Z,12.40
2023-04-10T21:22:49.428Z,11.20
2023-04-10T21:25:21.656Z,11.70
2023-04-10T21:27:56.362Z,11.30
2023-04-10T21:30:29.304Z,12.20
2023-04-10T21:33:01.590Z,11.40
2023-04-10T21:35:35.360Z,10.70
2023-04-10T21:38:08.510Z,11.20
2023-04-10T21:40:41.797Z,9.60
2023-04-10T21:43:14.073Z,9.90
2023-04-10T21:45:49.087Z,11.30
2023-04-10T21:48:24.523Z,12.00
2023-04-10T21:50:58.664Z,11.90
2023-04-10T21:53:30.706Z,12.80
2023-04-10T21:56:02.902Z,13.30
2023-04-10T21:58:38.803Z,12.20
2023-04-10T22:01:17.273Z,12.30
2023-04-10T22:03:53.978Z,12.60
2023-04-10T22:06:29.568Z,12.20
2023-04-10T22:11:40.635Z,10.80
2023-04-10T22:14:16.534Z,11.60
2023-04-10T22:16:49.855Z,11.50
2023-04-10T22:19:26.312Z,13.10
2023-04-10T22:21:58.729Z,13.20
2023-04-10T22:24:33.851Z,11.30
2023-04-10T22:27:08.221Z,11.70
2023-04-10T22:29:41.957Z,12.20
2023-04-10T22:32:15.528Z,11.80
2023-04-10T22:34:47.765Z,13.40
2023-04-10T22:37:20.221Z,13.20
2023-04-10T22:39:56.460Z,12.70
2023-04-10T22:42:33.441Z,12.70
2023-04-10T22:45:06.224Z,15.20
2023-04-10T22:47:39.664Z,13.60
2023-04-10T22:50:12.457Z,14.30
2023-04-10T22:52:47.369Z,13.90
2023-04-10T22:55:19.654Z,12.90
2023-04-10T22:57:52.747Z,13.80
2023-04-10T23:00:24.960Z,13.30
2023-04-10T23:02:57.278Z,13.60
2023-04-10T23:05:30.124Z,13.60
2023-04-10T23:08:02.392Z,15.00
2023-04-10T23:10:34.448Z,13.10
2023-04-10T23:13:06.831Z,13.50
2023-04-10T23:15:43.516Z,12.70
2023-04-10T23:18:19.722Z,12.80
2023-04-10T23:20:54.629Z,13.10
2023-04-10T23:23:27.212Z,12.80
2023-04-10T23:26:03.790Z,12.70
2023-04-10T23:28:36.233Z,13.00
2023-04-10T23:31:13.809Z,13.10
2023-04-10T23:33:54.938Z,12.50
2023-04-10T23:36:28.397Z,12.10
2023-04-10T23:39:01.021Z,12.10
2023-04-10T23:41:33.811Z,12.10
2023-04-10T23:44:06.650Z,12.10
2023-04-10T23:46:39.737Z,12.90
2023-04-10T23:49:12.322Z,13.20
2023-04-10T23:51:45.038Z,13.90
2023-04-10T23:54:19.644Z,12.50
2023-04-10T23:56:51.675Z,13.00
2023-04-10T23:59:23.639Z,13.20
